Time;durP1;ratioP1;P1;durP2;ratioP2;P2;SDS_P1;SDS_P2;PMS_P1;PMS_P2;Temp;Humidity;BMP_temperature;BMP_pressure;BME280_temperature;BME280_humidity;BME280_pressure;Samples;Min_cycle;Max_cycle;Signal;HPM_P1;HPM_P2
2023/01/20 00:00:34;;;;;;;8.80;5.53;;;;;;;;;;4960582;28;20039;-80
2023/01/20 00:02:59;;;;;;;13.70;5.53;;;;;;;;;;4956392;28;20125;-80
2023/01/20 00:05:25;;;;;;;13.77;5.60;;;;;;;;;;4959024;28;20035;-82
2023/01/20 00:07:50;;;;;;;9.52;4.47;;;;;;;;;;4957648;28;20057;-82
2023/01/20 00:10:16;;;;;;;9.32;5.15;;;;;;;;;;4956485;28;20682;-83
2023/01/20 00:12:41;;;;;;;8.88;5.80;;;;;;;;;;4963613;28;20119;-82
2023/01/20 00:15:08;;;;;;;6.28;4.97;;;;;;;;;;4974067;28;20035;-80
2023/01/20 00:17:33;;;;;;;11.13;5.57;;;;;;;;;;4972312;28;20117;-82
2023/01/20 00:19:59;;;;;;;6.82;4.93;;;;;;;;;;4956812;28;20123;-82
2023/01/20 00:22:24;;;;;;;7.97;4.85;;;;;;;;;;4961245;28;20586;-82
2023/01/20 00:24:49;;;;;;;9.35;4.50;;;;;;;;;;4960871;28;20609;-82
2023/01/20 00:27:27;;;;;;;10.35;5.90;;;;;;;;;;4964943;28;20489;-82
2023/01/20 00:29:54;;;;;;;9.82;5.75;;;;;;;;;;4961203;28;20049;-82
2023/01/20 00:32:19;;;;;;;8.35;4.82;;;;;;;;;;4966343;28;20485;-80
2023/01/20 00:34:44;;;;;;;10.73;4.72;;;;;;;;;;4955268;28;20030;-80
2023/01/20 00:37:10;;;;;;;6.30;4.53;;;;;;;;;;4979071;28;20386;-81
2023/01/20 00:39:35;;;;;;;12.32;4.55;;;;;;;;;;4959766;28;20035;-80
2023/01/20 00:42:00;;;;;;;7.57;4.78;;;;;;;;;;4959492;28;20026;-80
2023/01/20 00:44:26;;;;;;;7.88;5.20;;;;;;;;;;4961895;28;20054;-80
2023/01/20 00:46:51;;;;;;;10.02;5.22;;;;;;;;;;4960913;28;20077;-80
2023/01/20 00:49:43;;;;;;;7.00;4.75;;;;;;;;;;4966719;28;20114;-80
2023/01/20 00:52:08;;;;;;;10.68;4.95;;;;;;;;;;4963358;28;20089;-82
2023/01/20 00:54:33;;;;;;;7.80;5.53;;;;;;;;;;4950157;28;20454;-80
2023/01/20 00:56:59;;;;;;;7.93;5.00;;;;;;;;;;4959522;28;20045;-80
2023/01/20 00:59:24;;;;;;;8.73;5.22;;;;;;;;;;4975264;28;20027;-81
2023/01/20 01:01:49;;;;;;;10.63;5.05;;;;;;;;;;4953783;28;20027;-80
2023/01/20 01:04:15;;;;;;;10.13;4.57;;;;;;;;;;4961441;28;20026;-80
2023/01/20 01:06:40;;;;;;;5.03;3.78;;;;;;;;;;4977884;28;20118;-81
2023/01/20 01:09:05;;;;;;;8.10;4.78;;;;;;;;;;4958898;28;20046;-81
2023/01/20 01:11:30;;;;;;;8.32;4.93;;;;;;;;;;4958527;28;20152;-81
2023/01/20 01:13:56;;;;;;;7.00;4.75;;;;;;;;;;4958527;28;20109;-81
2023/01/20 01:16:22;;;;;;;15.27;5.13;;;;;;;;;;4960762;28;20062;-80
2023/01/20 01:18:47;;;;;;;8.63;4.63;;;;;;;;;;4958516;28;20477;-81
2023/01/20 01:21:26;;;;;;;9.30;5.10;;;;;;;;;;4954359;28;20031;-80
2023/01/20 01:23:52;;;;;;;10.27;5.60;;;;;;;;;;4961367;28;20027;-81
2023/01/20 01:26:18;;;;;;;6.90;5.05;;;;;;;;;;4957457;28;20607;-81
2023/01/20 01:28:46;;;;;;;10.20;5.38;;;;;;;;;;4954244;28;20047;-81
2023/01/20 01:34:15;;;;;;;7.65;4.65;;;;;;;;;;4960294;28;20389;-81
2023/01/20 01:36:41;;;;;;;9.85;5.82;;;;;;;;;;4962715;28;20030;-81
2023/01/20 01:39:06;;;;;;;8.95;4.85;;;;;;;;;;4966963;28;20026;-81
2023/01/20 01:41:31;;;;;;;7.15;5.45;;;;;;;;;;4964187;28;20030;-80
2023/01/20 01:44:08;;;;;;;7.57;4.57;;;;;;;;;;4965814;28;20088;-81
2023/01/20 01:46:37;;;;;;;12.10;5.85;;;;;;;;;;4972013;28;20046;-82
2023/01/20 01:49:39;;;;;;;11.68;6.07;;;;;;;;;;4978414;28;20089;-82
2023/01/20 01:52:10;;;;;;;7.78;4.13;;;;;;;;;;4988066;28;20027;-81
2023/01/20 01:54:41;;;;;;;7.30;4.87;;;;;;;;;;4968604;28;20027;-81
2023/01/20 01:57:07;;;;;;;16.05;6.25;;;;;;;;;;4988207;28;20018;-81
2023/01/20 01:59:34;;;;;;;6.97;4.43;;;;;;;;;;4963867;28;20035;-81
2023/01/20 02:01:59;;;;;;;8.50;5.13;;;;;;;;;;4970968;28;20039;-81
2023/01/20 02:04:26;;;;;;;8.30;5.53;;;;;;;;;;4970009;28;20457;-81
2023/01/20 02:07:04;;;;;;;10.60;5.25;;;;;;;;;;4970100;28;20025;-81
2023/01/20 02:09:30;;;;;;;9.75;4.40;;;;;;;;;;4973171;28;20565;-81
2023/01/20 02:12:01;;;;;;;7.35;5.55;;;;;;;;;;4968051;28;20039;-81
2023/01/20 02:14:33;;;;;;;8.27;4.70;;;;;;;;;;4972293;28;20109;-81
2023/01/20 02:17:37;;;;;;;6.28;4.55;;;;;;;;;;4973349;28;20023;-81
2023/01/20 02:20:30;;;;;;;10.27;4.65;;;;;;;;;;4966421;28;20473;-81
2023/01/20 02:23:37;;;;;;;6.18;4.25;;;;;;;;;;4983814;28;20023;-80
2023/01/20 02:26:21;;;;;;;5.88;4.03;;;;;;;;;;4989773;28;20034;-80
2023/01/20 02:29:23;;;;;;;7.22;3.45;;;;;;;;;;4988913;28;20358;-81
2023/01/20 02:32:26;;;;;;;6.35;3.85;;;;;;;;;;4997833;28;20029;-81
2023/01/20 02:35:11;;;;;;;;;;;;;;;;;;4978808;28;20104;-80
2023/01/20 02:37:55;;;;;;;3.10;2.53;;;;;;;;;;4970022;28;19922;-82
2023/01/20 02:40:33;;;;;;;5.65;4.05;;;;;;;;;;4977123;28;20026;-82
2023/01/20 02:43:29;;;;;;;4.60;3.80;;;;;;;;;;4984814;28;20099;-81
2023/01/20 02:46:07;;;;;;;8.05;3.88;;;;;;;;;;4981882;28;20126;-79
2023/01/20 02:48:44;;;;;;;6.63;4.43;;;;;;;;;;4999059;28;20296;-80
2023/01/20 02:51:22;;;;;;;7.50;3.95;;;;;;;;;;4998077;28;20121;-82
2023/01/20 02:54:05;;;;;;;7.75;4.07;;;;;;;;;;4980932;28;20034;-80
2023/01/20 02:56:32;;;;;;;4.65;3.55;;;;;;;;;;4994174;28;20030;-82
2023/01/20 02:59:05;;;;;;;7.28;4.50;;;;;;;;;;4972652;28;20070;-82
2023/01/20 03:01:42;;;;;;;7.57;4.53;;;;;;;;;;4977652;28;20034;-83
2023/01/20 03:04:11;;;;;;;10.55;5.63;;;;;;;;;;4970932;28;20093;-80
2023/01/20 03:06:41;;;;;;;9.98;5.00;;;;;;;;;;5154865;22;20053;-84
2023/01/20 03:09:11;;;;;;;6.65;5.07;;;;;;;;;;5010225;28;20342;-86
2023/01/20 03:11:42;;;;;;;7.20;4.55;;;;;;;;;;5006973;28;20041;-83
2023/01/20 03:14:12;;;;;;;9.48;4.95;;;;;;;;;;5012211;28;20033;-84
2023/01/20 03:16:39;;;;;;;7.38;4.43;;;;;;;;;;5009959;28;20045;-83
2023/01/20 03:19:04;;;;;;;8.65;6.22;;;;;;;;;;5006084;28;20022;-84
2023/01/20 03:21:29;;;;;;;8.63;4.63;;;;;;;;;;4990449;28;20412;-84
2023/01/20 03:23:59;;;;;;;14.77;4.90;;;;;;;;;;5002873;28;20042;-85
2023/01/20 03:26:25;;;;;;;10.20;5.15;;;;;;;;;;5016159;28;20030;-85
2023/01/20 03:28:51;;;;;;;8.45;4.03;;;;;;;;;;5010277;28;20511;-85
2023/01/20 03:31:21;;;;;;;5.38;4.32;;;;;;;;;;5011386;28;20539;-83
2023/01/20 03:33:49;;;;;;;5.68;4.13;;;;;;;;;;5001248;28;20095;-84
2023/01/20 03:36:15;;;;;;;6.38;4.30;;;;;;;;;;4993517;28;20400;-85
2023/01/20 03:38:42;;;;;;;6.30;4.72;;;;;;;;;;5008117;28;20408;-84
2023/01/20 03:41:26;;;;;;;6.15;3.55;;;;;;;;;;4988622;28;20131;-85
2023/01/20 03:44:05;;;;;;;7.55;4.25;;;;;;;;;;5010526;28;20038;-83
2023/01/20 03:47:15;;;;;;;9.27;4.10;;;;;;;;;;4996159;28;20077;-85
2023/01/20 03:49:47;;;;;;;6.68;3.67;;;;;;;;;;4987313;28;20031;-85
2023/01/20 03:52:29;;;;;;;7.43;4.20;;;;;;;;;;5010094;28;20069;-86
2023/01/20 03:55:01;;;;;;;5.55;3.63;;;;;;;;;;5000684;28;20034;-84
2023/01/20 03:57:38;;;;;;;9.85;4.10;;;;;;;;;;4997386;28;20105;-84
2023/01/20 04:00:06;;;;;;;8.20;4.45;;;;;;;;;;4989552;28;20022;-83
2023/01/20 04:02:33;;;;;;;6.47;4.57;;;;;;;;;;5004831;28;20034;-83
2023/01/20 04:05:01;;;;;;;9.00;4.70;;;;;;;;;;4993295;28;20582;-87
2023/01/20 04:07:30;;;;;;;7.15;4.38;;;;;;;;;;5011112;28;20033;-83
2023/01/20 04:10:02;;;;;;;5.82;4.97;;;;;;;;;;5009742;28;20026;-83
2023/01/20 04:12:28;;;;;;;7.40;4.38;;;;;;;;;;4975821;28;20030;-83
2023/01/20 04:14:53;;;;;;;8.25;5.03;;;;;;;;;;5011284;28;20038;-82
2023/01/20 04:17:19;;;;;;;10.93;4.38;;;;;;;;;;4995895;28;20051;-82
2023/01/20 04:19:44;;;;;;;7.07;4.93;;;;;;;;;;4995632;28;20026;-84
2023/01/20 04:22:18;;;;;;;7.10;4.50;;;;;;;;;;4995151;28;20068;-84
2023/01/20 04:25:10;;;;;;;4.75;3.95;;;;;;;;;;4989573;28;20141;-84
2023/01/20 04:27:35;;;;;;;12.90;4.45;;;;;;;;;;4989441;28;20041;-83
2023/01/20 04:30:01;;;;;;;6.57;4.28;;;;;;;;;;4993884;28;20062;-87
2023/01/20 04:32:26;;;;;;;10.13;4.88;;;;;;;;;;4994660;28;20092;-86
2023/01/20 04:34:52;;;;;;;4.75;3.53;;;;;;;;;;5017118;28;20027;-85
2023/01/20 04:37:18;;;;;;;6.13;4.30;;;;;;;;;;5010780;28;20018;-85
2023/01/20 04:39:43;;;;;;;6.00;4.50;;;;;;;;;;5010413;28;20566;-86
2023/01/20 04:42:09;;;;;;;8.63;4.82;;;;;;;;;;5011306;28;20049;-84
2023/01/20 04:44:35;;;;;;;7.72;4.47;;;;;;;;;;4996418;28;20027;-86
2023/01/20 04:47:00;;;;;;;5.55;4.00;;;;;;;;;;4988001;28;20033;-85
2023/01/20 04:49:26;;;;;;;4.78;3.67;;;;;;;;;;5016369;28;20383;-85
2023/01/20 04:51:51;;;;;;;11.02;4.85;;;;;;;;;;4996977;28;20086;-85
2023/01/20 04:54:17;;;;;;;12.40;3.90;;;;;;;;;;4991851;28;20037;-85
2023/01/20 04:56:43;;;;;;;8.68;4.65;;;;;;;;;;4992883;28;20053;-85
2023/01/20 04:59:08;;;;;;;5.07;3.78;;;;;;;;;;4987683;28;20030;-84
2023/01/20 05:01:33;;;;;;;6.00;4.18;;;;;;;;;;5009644;28;20022;-82
2023/01/20 05:03:58;;;;;;;6.07;3.67;;;;;;;;;;4997136;28;20034;-84
2023/01/20 05:06:24;;;;;;;6.68;4.10;;;;;;;;;;5011330;28;20491;-82
2023/01/20 05:08:49;;;;;;;6.40;3.80;;;;;;;;;;4997200;28;20034;-84
2023/01/20 05:11:14;;;;;;;5.97;3.95;;;;;;;;;;5022062;28;20049;-81
2023/01/20 05:13:40;;;;;;;10.75;4.47;;;;;;;;;;5008231;28;20469;-84
2023/01/20 05:16:06;;;;;;;7.10;4.10;;;;;;;;;;5010290;28;20072;-83
2023/01/20 05:18:32;;;;;;;12.40;5.32;;;;;;;;;;4992059;28;20552;-82
2023/01/20 05:20:58;;;;;;;6.47;4.82;;;;;;;;;;5002363;28;20022;-84
2023/01/20 05:23:23;;;;;;;9.02;3.80;;;;;;;;;;5012912;28;20484;-83
2023/01/20 05:25:49;;;;;;;5.60;3.58;;;;;;;;;;4988990;28;20042;-83
2023/01/20 05:28:15;;;;;;;7.22;4.75;;;;;;;;;;5002026;28;20026;-83
2023/01/20 05:30:40;;;;;;;5.25;4.25;;;;;;;;;;5002214;28;20030;-83
2023/01/20 05:33:05;;;;;;;5.55;3.67;;;;;;;;;;4994328;28;20484;-81
2023/01/20 05:35:31;;;;;;;5.47;3.80;;;;;;;;;;4999340;28;20469;-82
2023/01/20 05:37:56;;;;;;;13.02;4.85;;;;;;;;;;5001078;28;20105;-84
2023/01/20 05:40:21;;;;;;;11.95;3.80;;;;;;;;;;4995357;28;20019;-83
2023/01/20 05:42:47;;;;;;;8.35;3.90;;;;;;;;;;4998289;28;20100;-81
2023/01/20 05:45:12;;;;;;;5.68;3.90;;;;;;;;;;4992752;28;20026;-83
2023/01/20 05:47:37;;;;;;;7.15;3.97;;;;;;;;;;4999184;28;20041;-83
2023/01/20 05:50:04;;;;;;;8.57;4.55;;;;;;;;;;4997700;28;20031;-83
2023/01/20 05:52:29;;;;;;;9.90;4.53;;;;;;;;;;4994803;28;20037;-82
2023/01/20 05:54:55;;;;;;;5.50;4.20;;;;;;;;;;4996653;28;20030;-82
2023/01/20 05:57:23;;;;;;;8.00;4.47;;;;;;;;;;4997465;28;20022;-84
2023/01/20 05:59:50;;;;;;;6.80;4.75;;;;;;;;;;4993696;28;20026;-82
2023/01/20 06:02:17;;;;;;;4.28;3.35;;;;;;;;;;4998745;28;20053;-83
2023/01/20 06:04:44;;;;;;;6.65;4.05;;;;;;;;;;5016883;28;20026;-83
2023/01/20 06:07:13;;;;;;;4.47;3.45;;;;;;;;;;5002955;28;20042;-82
2023/01/20 06:09:40;;;;;;;6.70;3.65;;;;;;;;;;5001449;28;20034;-82
2023/01/20 06:12:05;;;;;;;3.97;3.22;;;;;;;;;;5016685;28;20037;-83
2023/01/20 06:14:30;;;;;;;6.55;3.92;;;;;;;;;;5006317;28;20029;-83
2023/01/20 06:16:56;;;;;;;7.18;3.80;;;;;;;;;;5003058;28;20148;-82
2023/01/20 06:19:21;;;;;;;5.90;3.97;;;;;;;;;;5018433;28;20014;-82
2023/01/20 06:21:47;;;;;;;5.78;3.55;;;;;;;;;;5011611;28;20022;-84
2023/01/20 06:24:12;;;;;;;5.28;3.47;;;;;;;;;;5002715;28;20029;-83
2023/01/20 06:26:38;;;;;;;5.88;3.03;;;;;;;;;;5007194;28;20030;-82
2023/01/20 06:29:03;;;;;;;5.55;4.07;;;;;;;;;;5006094;28;20080;-85
2023/01/20 06:31:29;;;;;;;8.55;4.22;;;;;;;;;;5009999;28;20549;-82
2023/01/20 06:33:55;;;;;;;6.85;3.72;;;;;;;;;;4999313;28;20038;-84
2023/01/20 06:36:21;;;;;;;6.03;3.40;;;;;;;;;;5001536;28;20057;-84
2023/01/20 06:38:49;;;;;;;4.95;3.35;;;;;;;;;;4988951;28;20054;-85
2023/01/20 06:41:16;;;;;;;6.90;4.07;;;;;;;;;;4995340;28;20103;-84
2023/01/20 06:43:42;;;;;;;6.30;3.53;;;;;;;;;;4992244;28;20045;-84
2023/01/20 06:46:11;;;;;;;6.22;4.32;;;;;;;;;;4994088;28;20026;-83
2023/01/20 06:48:37;;;;;;;7.35;4.05;;;;;;;;;;4988895;28;20053;-84
2023/01/20 06:51:09;;;;;;;9.57;4.38;;;;;;;;;;4992100;28;20496;-82
2023/01/20 06:53:35;;;;;;;;;;;;;;;;;;4992870;28;20554;-84
2023/01/20 06:56:00;;;;;;;6.68;3.30;;;;;;;;;;5004582;28;19921;-82
2023/01/20 06:58:27;;;;;;;4.82;3.47;;;;;;;;;;5028278;28;20041;-80
2023/01/20 07:00:54;;;;;;;4.07;3.30;;;;;;;;;;5015312;28;20040;-81
2023/01/20 07:03:20;;;;;;;5.93;3.35;;;;;;;;;;5026112;28;20038;-81
2023/01/20 07:06:14;;;;;;;5.88;3.65;;;;;;;;;;5024039;28;20045;-81
2023/01/20 07:08:41;;;;;;;4.57;3.05;;;;;;;;;;5001961;28;20038;-82
2023/01/20 07:11:07;;;;;;;7.50;3.30;;;;;;;;;;5032725;28;20038;-81
2023/01/20 07:13:32;;;;;;;5.95;3.72;;;;;;;;;;5003147;28;20030;-83
2023/01/20 07:15:57;;;;;;;7.70;3.47;;;;;;;;;;4999850;28;20026;-84
2023/01/20 07:18:22;;;;;;;9.00;3.67;;;;;;;;;;4992459;28;20034;-84
2023/01/20 07:20:53;;;;;;;5.72;3.33;;;;;;;;;;5004997;28;20033;-83
2023/01/20 07:23:18;;;;;;;9.00;3.53;;;;;;;;;;5001806;28;20059;-83
2023/01/20 07:25:43;;;;;;;8.10;3.45;;;;;;;;;;4994766;28;20082;-83
2023/01/20 07:28:09;;;;;;;6.95;4.25;;;;;;;;;;5019298;28;20060;-83
2023/01/20 07:30:34;;;;;;;5.07;3.80;;;;;;;;;;5005359;28;20037;-84
2023/01/20 07:32:59;;;;;;;8.13;3.90;;;;;;;;;;4992490;28;20077;-82
2023/01/20 07:35:25;;;;;;;4.60;2.90;;;;;;;;;;4994933;28;20031;-83
2023/01/20 07:37:50;;;;;;;9.50;4.38;;;;;;;;;;4992137;28;20033;-84
2023/01/20 07:40:16;;;;;;;7.90;4.00;;;;;;;;;;5003335;28;20029;-83
2023/01/20 07:42:41;;;;;;;6.85;3.65;;;;;;;;;;4996855;28;20024;-82
2023/01/20 07:45:07;;;;;;;5.50;3.05;;;;;;;;;;4992729;28;20022;-82
2023/01/20 07:47:32;;;;;;;6.80;4.07;;;;;;;;;;5021916;28;20045;-84
2023/01/20 07:49:58;;;;;;;4.00;3.20;;;;;;;;;;5000361;28;21132;-82
2023/01/20 07:52:23;;;;;;;4.70;3.40;;;;;;;;;;5011631;28;20044;-83
2023/01/20 07:54:48;;;;;;;6.95;3.80;;;;;;;;;;5012845;28;20046;-83
2023/01/20 07:57:14;;;;;;;9.32;3.47;;;;;;;;;;5000041;28;20019;-84
2023/01/20 07:59:39;;;;;;;7.53;4.13;;;;;;;;;;5014050;28;20034;-81
2023/01/20 08:02:04;;;;;;;8.65;5.10;;;;;;;;;;5000293;28;20121;-84
2023/01/20 08:04:30;;;;;;;8.90;3.92;;;;;;;;;;4997764;28;20069;-82
2023/01/20 08:06:55;;;;;;;5.40;3.75;;;;;;;;;;4999950;28;20040;-82
2023/01/20 08:09:20;;;;;;;5.63;3.88;;;;;;;;;;5009652;28;20025;-83
2023/01/20 08:11:46;;;;;;;8.57;4.30;;;;;;;;;;5021121;28;20038;-82
2023/01/20 08:14:11;;;;;;;7.15;3.75;;;;;;;;;;5000459;28;20091;-83
2023/01/20 08:16:37;;;;;;;6.85;3.50;;;;;;;;;;4999092;28;20057;-84
2023/01/20 08:19:02;;;;;;;4.13;3.40;;;;;;;;;;5004133;28;20030;-84
2023/01/20 08:21:30;;;;;;;6.47;3.85;;;;;;;;;;5008197;28;20050;-83
2023/01/20 08:23:57;;;;;;;6.82;4.60;;;;;;;;;;5000531;28;20034;-83
2023/01/20 08:26:26;;;;;;;9.20;3.50;;;;;;;;;;5005716;28;20080;-84
2023/01/20 08:28:53;;;;;;;5.65;3.38;;;;;;;;;;5021203;28;21494;-83
2023/01/20 08:31:21;;;;;;;8.27;3.55;;;;;;;;;;4996592;28;20038;-84
2023/01/20 08:33:47;;;;;;;12.40;5.63;;;;;;;;;;4999122;28;20042;-84
2023/01/20 08:36:15;;;;;;;10.35;5.78;;;;;;;;;;4996703;28;20116;-83
2023/01/20 08:38:42;;;;;;;8.20;5.07;;;;;;;;;;5007387;28;20031;-84
2023/01/20 08:41:22;;;;;;;6.75;3.83;;;;;;;;;;5015274;28;20036;-83
2023/01/20 08:43:48;;;;;;;4.63;3.50;;;;;;;;;;5018596;28;20053;-82
2023/01/20 08:46:15;;;;;;;5.30;3.90;;;;;;;;;;5004489;28;20295;-83
2023/01/20 08:48:42;;;;;;;5.43;3.85;;;;;;;;;;5005756;28;20041;-83
2023/01/20 08:51:14;;;;;;;4.43;3.58;;;;;;;;;;4998036;28;20041;-84
2023/01/20 08:53:40;;;;;;;6.88;4.47;;;;;;;;;;4995530;28;20030;-82
2023/01/20 08:56:07;;;;;;;7.07;4.38;;;;;;;;;;5000786;28;20046;-84
2023/01/20 08:58:32;;;;;;;6.78;3.90;;;;;;;;;;5004141;28;20117;-85
2023/01/20 09:00:58;;;;;;;6.05;3.78;;;;;;;;;;4984127;28;20085;-85
2023/01/20 09:03:24;;;;;;;5.80;3.78;;;;;;;;;;5005706;28;20022;-85
2023/01/20 09:05:50;;;;;;;5.75;3.75;;;;;;;;;;4995506;28;20404;-84
2023/01/20 09:08:18;;;;;;;7.82;3.92;;;;;;;;;;5008004;28;20030;-83
2023/01/20 09:10:44;;;;;;;8.25;3.50;;;;;;;;;;4978879;28;20046;-84
2023/01/20 09:13:09;;;;;;;4.65;3.50;;;;;;;;;;4977805;28;20038;-83
2023/01/20 09:15:35;;;;;;;6.95;3.83;;;;;;;;;;4978538;28;20145;-84
2023/01/20 09:18:00;;;;;;;6.60;3.33;;;;;;;;;;5012012;28;20034;-84
2023/01/20 09:20:27;;;;;;;4.50;3.58;;;;;;;;;;5006694;28;20084;-84
2023/01/20 09:22:53;;;;;;;10.15;4.90;;;;;;;;;;5019454;28;20026;-84
2023/01/20 09:25:18;;;;;;;5.07;3.20;;;;;;;;;;5001273;28;20048;-84
2023/01/20 09:27:44;;;;;;;5.53;3.90;;;;;;;;;;5016989;28;20022;-82
2023/01/20 09:30:09;;;;;;;6.28;4.22;;;;;;;;;;5005338;28;20042;-85
2023/01/20 09:32:35;;;;;;;9.10;4.28;;;;;;;;;;5011823;28;20532;-84
2023/01/20 09:35:00;;;;;;;7.65;3.92;;;;;;;;;;5007625;28;20030;-84
2023/01/20 09:46:07;;;;;;;7.28;4.25;;;;;;;;;;4978948;28;20413;-84
2023/01/20 09:54:39;;;;;;;5.13;4.25;;;;;;;;;;4999856;28;20109;-84
2023/01/20 09:57:05;;;;;;;7.55;4.28;;;;;;;;;;4998923;28;20015;-84
2023/01/20 09:59:45;;;;;;;6.93;3.97;;;;;;;;;;5003758;28;20046;-82
2023/01/20 10:02:17;;;;;;;5.93;4.28;;;;;;;;;;4994121;28;20033;-83
2023/01/20 10:04:51;;;;;;;4.72;3.38;;;;;;;;;;5025014;28;20037;-84
2023/01/20 10:07:21;;;;;;;7.97;4.15;;;;;;;;;;5000374;28;20574;-84
2023/01/20 10:09:59;;;;;;;8.35;4.00;;;;;;;;;;5015747;28;20389;-84
2023/01/20 10:12:34;;;;;;;8.85;4.30;;;;;;;;;;4997504;28;20036;-83
2023/01/20 10:15:12;;;;;;;7.47;4.25;;;;;;;;;;5000651;28;20027;-84
2023/01/20 10:17:52;;;;;;;10.30;4.53;;;;;;;;;;5001767;28;20069;-83
2023/01/20 10:20:30;;;;;;;9.20;4.88;;;;;;;;;;5003072;28;20492;-83
2023/01/20 10:23:23;;;;;;;7.45;4.82;;;;;;;;;;5005675;28;20018;-82
2023/01/20 10:25:56;;;;;;;5.95;3.53;;;;;;;;;;5027106;28;20085;-83
2023/01/20 10:28:27;;;;;;;6.45;3.47;;;;;;;;;;5025518;28;20030;-83
2023/01/20 10:30:56;;;;;;;9.60;4.60;;;;;;;;;;4996616;28;20039;-87
2023/01/20 10:33:37;;;;;;;9.45;4.47;;;;;;;;;;4984908;28;21296;-82
2023/01/20 10:36:20;;;;;;;5.22;3.55;;;;;;;;;;4986991;28;20031;-83
2023/01/20 10:39:03;;;;;;;15.25;4.95;;;;;;;;;;4984325;28;20932;-83
2023/01/20 10:41:44;;;;;;;5.85;3.42;;;;;;;;;;4984800;28;20539;-84
2023/01/20 10:44:14;;;;;;;8.02;3.83;;;;;;;;;;4985586;28;20035;-83
2023/01/20 10:46:51;;;;;;;11.45;4.57;;;;;;;;;;4983881;28;20034;-83
2023/01/20 10:49:26;;;;;;;9.15;3.63;;;;;;;;;;4983955;28;20042;-83
2023/01/20 10:52:13;;;;;;;4.35;3.30;;;;;;;;;;4983063;28;20501;-83
2023/01/20 10:54:57;;;;;;;5.93;3.78;;;;;;;;;;4983469;28;20037;-82
2023/01/20 10:57:22;;;;;;;7.57;3.38;;;;;;;;;;4984594;28;20027;-82
2023/01/20 11:00:03;;;;;;;7.53;4.32;;;;;;;;;;4988219;28;20026;-83
2023/01/20 11:02:33;;;;;;;5.68;3.58;;;;;;;;;;4986801;28;20489;-84
2023/01/20 11:05:30;;;;;;;3.50;2.72;;;;;;;;;;4988779;28;20110;-82
2023/01/20 11:07:58;;;;;;;6.80;3.13;;;;;;;;;;4986516;28;20054;-85
2023/01/20 11:10:25;;;;;;;6.63;3.70;;;;;;;;;;4993370;28;20030;-83
2023/01/20 11:12:55;;;;;;;8.23;4.38;;;;;;;;;;4989746;28;20030;-83
2023/01/20 11:15:26;;;;;;;8.73;3.78;;;;;;;;;;5114353;22;20056;-86
2023/01/20 11:18:13;;;;;;;5.72;3.33;;;;;;;;;;5013065;28;20041;-85
2023/01/20 11:20:49;;;;;;;5.15;2.95;;;;;;;;;;4998014;28;20022;-87
2023/01/20 11:23:47;;;;;;;4.47;2.92;;;;;;;;;;5002661;28;20015;-85
2023/01/20 11:26:25;;;;;;;3.30;2.53;;;;;;;;;;4981118;28;20053;-85
2023/01/20 11:29:00;;;;;;;8.20;3.55;;;;;;;;;;5001739;28;20117;-85
2023/01/20 11:31:49;;;;;;;6.18;2.97;;;;;;;;;;4996026;28;20054;-85
2023/01/20 11:34:47;;;;;;;5.63;3.72;;;;;;;;;;4996728;28;20033;-85
2023/01/20 11:37:36;;;;;;;7.38;3.50;;;;;;;;;;5000878;28;20049;-87
2023/01/20 11:40:28;;;;;;;4.53;3.33;;;;;;;;;;4999396;28;20049;-84
2023/01/20 11:42:54;;;;;;;2.92;2.30;;;;;;;;;;5004778;28;20061;-84
2023/01/20 11:45:31;;;;;;;5.28;2.65;;;;;;;;;;4994421;28;20054;-87
2023/01/20 11:48:16;;;;;;;3.65;2.67;;;;;;;;;;4990151;28;20033;-87
2023/01/20 11:50:48;;;;;;;7.22;3.25;;;;;;;;;;4991408;28;20030;-87
2023/01/20 11:53:18;;;;;;;;;;;;;;;;;;4994044;28;20049;-86
2023/01/20 11:55:50;;;;;;;4.85;2.97;;;;;;;;;;4983981;28;19928;-86
2023/01/20 11:58:22;;;;;;;4.57;3.25;;;;;;;;;;4993434;28;20160;-84
2023/01/20 12:00:50;;;;;;;4.55;3.47;;;;;;;;;;4991761;28;20037;-86
2023/01/20 12:03:34;;;;;;;5.15;3.83;;;;;;;;;;4983250;28;20058;-84
2023/01/20 12:06:27;;;;;;;5.38;3.03;;;;;;;;;;5002880;28;20038;-84
2023/01/20 12:09:02;;;;;;;7.25;3.67;;;;;;;;;;5001463;28;20088;-88
2023/01/20 12:11:32;;;;;;;4.88;3.47;;;;;;;;;;4998016;28;20484;-87
2023/01/20 12:14:23;;;;;;;8.55;3.88;;;;;;;;;;4994792;28;20050;-87
2023/01/20 12:17:11;;;;;;;7.57;3.30;;;;;;;;;;4989129;28;20384;-86
2023/01/20 12:19:54;;;;;;;5.45;3.40;;;;;;;;;;4976846;28;20452;-86
2023/01/20 12:22:24;;;;;;;5.75;3.95;;;;;;;;;;4988364;28;20038;-87
2023/01/20 12:25:08;;;;;;;7.85;4.18;;;;;;;;;;4995399;28;20037;-86
2023/01/20 12:27:42;;;;;;;6.93;3.67;;;;;;;;;;4992910;28;20428;-86
2023/01/20 12:30:26;;;;;;;8.40;3.25;;;;;;;;;;4981011;28;20149;-85
2023/01/20 12:32:51;;;;;;;7.53;3.47;;;;;;;;;;4999324;28;20660;-86
2023/01/20 12:35:20;;;;;;;3.85;3.20;;;;;;;;;;4991965;28;20109;-86
2023/01/20 12:37:54;;;;;;;4.25;2.78;;;;;;;;;;4985513;28;20034;-85
2023/01/20 12:40:28;;;;;;;10.48;3.50;;;;;;;;;;4982957;28;20038;-85
2023/01/20 12:43:07;;;;;;;4.07;3.13;;;;;;;;;;5000056;28;20040;-85
2023/01/20 12:46:03;;;;;;;8.63;3.03;;;;;;;;;;4983112;28;20042;-87
2023/01/20 12:48:48;;;;;;;6.72;3.40;;;;;;;;;;4987393;28;20027;-87
2023/01/20 12:51:31;;;;;;;6.18;2.78;;;;;;;;;;5014805;28;20075;-86
2023/01/20 12:54:18;;;;;;;5.50;2.50;;;;;;;;;;5000291;28;20023;-86
2023/01/20 12:56:49;;;;;;;7.72;3.20;;;;;;;;;;4993805;28;20121;-87
2023/01/20 12:59:39;;;;;;;3.40;2.50;;;;;;;;;;4993939;28;20026;-86
2023/01/20 13:02:23;;;;;;;5.63;3.20;;;;;;;;;;4995794;28;20026;-87
2023/01/20 13:05:07;;;;;;;16.77;3.80;;;;;;;;;;4985670;28;20022;-86
2023/01/20 13:07:56;;;;;;;4.82;3.40;;;;;;;;;;5006581;28;20030;-86
2023/01/20 13:10:34;;;;;;;3.03;2.47;;;;;;;;;;4994611;28;20033;-86
2023/01/20 13:13:05;;;;;;;5.40;3.28;;;;;;;;;;4992918;28;20409;-86
2023/01/20 13:15:40;;;;;;;6.63;3.05;;;;;;;;;;4991696;28;20132;-88
2023/01/20 13:18:22;;;;;;;10.70;3.97;;;;;;;;;;4978050;28;20022;-86
2023/01/20 13:20:49;;;;;;;8.05;3.10;;;;;;;;;;4995372;28;20038;-84
2023/01/20 13:23:19;;;;;;;6.00;3.75;;;;;;;;;;4993078;28;20057;-87
2023/01/20 13:25:46;;;;;;;16.42;3.03;;;;;;;;;;4995970;28;20046;-85
2023/01/20 13:28:23;;;;;;;5.68;2.90;;;;;;;;;;4995529;28;20049;-86
2023/01/20 13:30:53;;;;;;;4.45;3.05;;;;;;;;;;4990292;28;20109;-85
2023/01/20 13:33:35;;;;;;;5.28;3.63;;;;;;;;;;4995069;28;20093;-85
2023/01/20 13:36:21;;;;;;;;;;;;;;;;;;4998868;28;20113;-86
2023/01/20 13:38:48;;;;;;;4.55;2.42;;;;;;;;;;4995770;28;19913;-85
2023/01/20 13:41:47;;;;;;;4.38;2.55;;;;;;;;;;4999745;28;20030;-85
2023/01/20 13:44:34;;;;;;;4.13;2.88;;;;;;;;;;4953614;28;20713;-86
2023/01/20 13:47:00;;;;;;;3.75;2.20;;;;;;;;;;5015785;28;20026;-86
2023/01/20 13:49:52;;;;;;;2.70;2.05;;;;;;;;;;5006052;28;20033;-87
2023/01/20 13:52:48;;;;;;;9.18;5.10;;;;;;;;;;4992430;28;20029;-87
2023/01/20 13:55:49;;;;;;;13.68;5.88;;;;;;;;;;4988929;28;20054;-88
2023/01/20 13:58:14;;;;;;;12.38;5.22;;;;;;;;;;4995830;28;20026;-88
2023/01/20 14:00:40;;;;;;;10.38;4.82;;;;;;;;;;4999263;28;20026;-88
2023/01/20 14:03:18;;;;;;;19.77;6.28;;;;;;;;;;4996714;28;20500;-87
2023/01/20 14:05:58;;;;;;;8.43;3.95;;;;;;;;;;4997065;28;20030;-87
2023/01/20 14:08:29;;;;;;;3.00;1.88;;;;;;;;;;4998842;28;20464;-86
2023/01/20 14:11:10;;;;;;;3.83;1.73;;;;;;;;;;4994585;28;20022;-87
2023/01/20 14:13:35;;;;;;;2.30;1.67;;;;;;;;;;4997988;28;20027;-86
2023/01/20 14:16:00;;;;;;;1.85;1.60;;;;;;;;;;4988811;28;20026;-86
2023/01/20 14:18:26;;;;;;;3.60;2.10;;;;;;;;;;5000052;28;20380;-86
2023/01/20 14:21:02;;;;;;;5.18;2.70;;;;;;;;;;5002522;28;20033;-86
2023/01/20 14:23:34;;;;;;;7.95;4.30;;;;;;;;;;4999607;28;20069;-87
2023/01/20 14:26:11;;;;;;;23.50;9.00;;;;;;;;;;4990833;28;20500;-87
2023/01/20 14:28:43;;;;;;;30.83;12.07;;;;;;;;;;4990527;28;20473;-87
2023/01/20 14:58:13;;;;;;;;;;;;;;;;;;;;;
2023/01/20 15:01:24;;;;;;;2.70;2.40;;;;;;;;;;4944361;28;20430;-79
2023/01/20 15:10:41;;;;;;;2.40;1.88;;;;;;;;;;1130763;26;20650;-80
2023/01/20 15:18:22;;;;;;;4.03;2.40;;;;;;;;;;5185522;23;20051;-81
2023/01/20 15:20:56;;;;;;;73.75;35.38;;;;;;;;;;4990295;28;20121;-85
2023/01/20 15:23:30;;;;;;;118.80;51.65;;;;;;;;;;4984192;28;20198;-82
2023/01/20 15:26:09;;;;;;;96.32;43.97;;;;;;;;;;4987688;28;20039;-83
2023/01/20 15:28:42;;;;;;;105.45;46.33;;;;;;;;;;4990995;28;20044;-82
2023/01/20 15:31:12;;;;;;;92.50;39.70;;;;;;;;;;4993164;28;20389;-82
2023/01/20 15:33:38;;;;;;;64.20;30.80;;;;;;;;;;4981128;28;20034;-82
2023/01/20 15:36:35;;;;;;;38.95;21.23;;;;;;;;;;4978150;28;20032;-82
2023/01/20 15:39:01;;;;;;;15.70;8.30;;;;;;;;;;4965643;28;20107;-81
2023/01/20 15:41:26;;;;;;;8.18;3.97;;;;;;;;;;4972524;28;20534;-81
2023/01/20 15:43:53;;;;;;;2.88;2.10;;;;;;;;;;4980064;28;20038;-82
2023/01/20 15:46:18;;;;;;;3.00;2.08;;;;;;;;;;4985906;28;20026;-81
2023/01/20 15:48:44;;;;;;;3.22;2.03;;;;;;;;;;4974138;28;20042;-81
2023/01/20 15:51:16;;;;;;;4.00;2.50;;;;;;;;;;4975979;28;20089;-82
2023/01/20 15:53:44;;;;;;;3.58;1.67;;;;;;;;;;4962700;28;20566;-81
2023/01/20 15:56:17;;;;;;;2.60;2.10;;;;;;;;;;4960084;28;20714;-82
2023/01/20 15:58:42;;;;;;;3.22;2.28;;;;;;;;;;4963967;28;20022;-81
2023/01/20 16:01:12;;;;;;;6.88;2.47;;;;;;;;;;4971678;28;20037;-81
2023/01/20 16:03:37;;;;;;;3.53;2.22;;;;;;;;;;4978188;28;20076;-81
2023/01/20 16:06:13;;;;;;;6.03;2.83;;;;;;;;;;4977921;28;20528;-81